createdAt,value
2023-05-01T00:01:20.496Z,8.20
2023-05-01T00:03:48.429Z,9.02
2023-05-01T00:06:16.125Z,8.25
2023-05-01T00:08:43.853Z,9.45
2023-05-01T00:11:12.574Z,7.80
2023-05-01T00:13:40.388Z,7.22
2023-05-01T00:16:12.730Z,9.50
2023-05-01T00:18:40.395Z,7.53
2023-05-01T00:21:07.903Z,10.45
2023-05-01T00:23:36.170Z,10.10
2023-05-01T00:26:03.899Z,9.20
2023-05-01T00:28:31.570Z,7.72
2023-05-01T00:30:59.435Z,6.05
2023-05-01T00:33:26.999Z,8.73
2023-05-01T00:35:55.953Z,7.43
2023-05-01T00:38:24.308Z,9.77
2023-05-01T00:40:51.996Z,8.02
2023-05-01T00:43:19.550Z,7.57
2023-05-01T00:45:47.510Z,8.52
2023-05-01T00:48:15.920Z,8.77
2023-05-01T00:50:45.542Z,8.05
2023-05-01T00:53:13.276Z,7.00
2023-05-01T00:55:43.299Z,8.32
2023-05-01T00:58:14.455Z,9.07
2023-05-01T01:00:42.211Z,8.30
2023-05-01T01:03:10.456Z,9.73
2023-05-01T01:05:51.444Z,9.23
2023-05-01T01:09:08.225Z,10.80
2023-05-01T01:12:25.198Z,8.65
2023-05-01T01:15:10.251Z,10.55
2023-05-01T01:18:07.536Z,7.32
2023-05-01T01:20:47.127Z,9.20
2023-05-01T01:23:53.179Z,10.32
2023-05-01T01:26:52.352Z,9.10
2023-05-01T01:30:26.520Z,9.10
2023-05-01T01:33:13.170Z,8.35
2023-05-01T01:35:53.692Z,9.98
2023-05-01T01:38:40.464Z,10.07
2023-05-01T01:41:18.132Z,11.80
2023-05-01T01:44:02.025Z,7.90
2023-05-01T01:46:37.030Z,12.27
2023-05-01T01:49:13.422Z,9.23
2023-05-01T01:51:42.932Z,9.15
2023-05-01T01:54:15.314Z,8.13
2023-05-01T01:56:46.157Z,10.00
2023-05-01T01:59:16.659Z,9.73
2023-05-01T02:01:47.337Z,9.95
2023-05-01T02:04:17.187Z,7.18
2023-05-01T02:06:47.042Z,7.85
2023-05-01T02:09:19.511Z,9.38
2023-05-01T02:11:49.642Z,8.88
2023-05-01T02:14:19.169Z,9.15
2023-05-01T02:16:48.903Z,9.20
2023-05-01T02:19:18.978Z,11.40
2023-05-01T02:21:49.940Z,9.23
2023-05-01T02:24:22.569Z,7.65
2023-05-01T02:26:59.673Z,8.90
2023-05-01T02:29:28.466Z,8.43
2023-05-01T02:31:56.352Z,7.72
2023-05-01T02:34:24.457Z,7.75
2023-05-01T02:36:52.047Z,8.40
2023-05-01T02:39:20.199Z,9.25
2023-05-01T02:41:49.778Z,10.25
2023-05-01T02:44:20.622Z,10.38
2023-05-01T02:46:53.348Z,12.10
2023-05-01T02:51:50.879Z,10.00
2023-05-01T02:54:20.930Z,10.45
2023-05-01T02:56:48.617Z,9.82
2023-05-01T02:59:16.500Z,9.57
2023-05-01T03:01:44.299Z,9.40
2023-05-01T03:04:12.721Z,9.75
2023-05-01T03:06:40.805Z,8.15
2023-05-01T03:09:08.496Z,10.70
2023-05-01T03:11:37.696Z,11.00
2023-05-01T03:14:06.038Z,9.48
2023-05-01T03:16:33.848Z,7.90
2023-05-01T03:19:02.195Z,10.55
2023-05-01T03:21:29.738Z,11.18
2023-05-01T03:23:57.658Z,11.00
2023-05-01T03:26:25.730Z,9.63
2023-05-01T03:28:53.442Z,10.43
2023-05-01T03:31:22.631Z,10.52
2023-05-01T03:33:50.539Z,11.88
2023-05-01T03:36:18.274Z,11.52
2023-05-01T03:38:48.496Z,11.40
2023-05-01T03:41:34.527Z,15.05
2023-05-01T03:44:15.487Z,14.20
2023-05-01T03:46:45.159Z,8.63
2023-05-01T03:49:19.257Z,8.95
2023-05-01T03:51:49.275Z,9.27
2023-05-01T03:54:17.080Z,11.85
2023-05-01T03:56:58.686Z,10.95
2023-05-01T03:59:27.086Z,10.82
2023-05-01T04:01:54.780Z,10.13
2023-05-01T04:04:22.784Z,11.10
2023-05-01T04:06:58.835Z,8.45
2023-05-01T04:09:26.577Z,14.35
2023-05-01T04:11:54.394Z,9.10
2023-05-01T04:14:22.121Z,12.07
2023-05-01T04:16:51.194Z,11.23
2023-05-01T04:19:19.494Z,12.60
2023-05-01T04:21:48.717Z,10.35
2023-05-01T04:24:16.724Z,11.20
2023-05-01T04:26:44.515Z,11.32
2023-05-01T04:29:12.272Z,13.38
2023-05-01T04:31:41.732Z,14.02
2023-05-01T04:34:09.610Z,10.82
2023-05-01T04:36:38.587Z,12.00
2023-05-01T04:39:06.617Z,10.40
2023-05-01T04:41:34.569Z,11.80
2023-05-01T04:44:03.394Z,10.20
2023-05-01T04:46:31.086Z,13.30
2023-05-01T04:48:58.752Z,12.88
2023-05-01T04:51:28.038Z,10.82
2023-05-01T04:53:55.880Z,12.73
2023-05-01T04:56:27.412Z,10.98
2023-05-01T04:59:00.749Z,11.05
2023-05-01T05:01:30.624Z,10.82
2023-05-01T05:03:59.895Z,13.57
2023-05-01T05:06:28.498Z,10.65
2023-05-01T05:08:57.767Z,11.07
2023-05-01T05:11:26.473Z,11.68
2023-05-01T05:14:04.029Z,11.73
2023-05-01T05:16:34.910Z,13.52
2023-05-01T05:19:03.169Z,12.43
2023-05-01T05:21:36.684Z,10.55
2023-05-01T05:24:05.200Z,10.05
2023-05-01T05:26:33.673Z,10.40
2023-05-01T05:29:04.352Z,10.40
2023-05-01T05:31:32.114Z,14.45
2023-05-01T05:34:00.108Z,9.95
2023-05-01T05:36:28.722Z,11.95
2023-05-01T05:38:56.665Z,13.27
2023-05-01T05:41:24.651Z,10.25
2023-05-01T05:43:57.383Z,13.18
2023-05-01T05:46:25.512Z,12.30
2023-05-01T05:48:57.102Z,10.10
2023-05-01T05:51:28.556Z,13.32
2023-05-01T05:53:57.551Z,11.32
2023-05-01T05:56:25.370Z,12.95
2023-05-01T05:58:53.185Z,14.57
2023-05-01T06:01:21.640Z,12.27
2023-05-01T06:03:49.378Z,14.23
2023-05-01T06:06:17.488Z,14.82
2023-05-01T06:08:46.341Z,13.68
2023-05-01T06:11:14.359Z,13.18
2023-05-01T06:13:42.271Z,15.80
2023-05-01T06:16:10.148Z,12.77
2023-05-01T06:18:38.007Z,14.05
2023-05-01T06:21:06.626Z,14.38
2023-05-01T06:23:34.832Z,11.75
2023-05-01T06:26:24.665Z,14.50
2023-05-01T06:28:52.473Z,11.63
2023-05-01T06:31:20.802Z,14.55
2023-05-01T06:33:53.174Z,11.73
2023-05-01T06:36:28.026Z,13.70
2023-05-01T06:38:55.751Z,11.00
2023-05-01T06:41:25.531Z,10.25
2023-05-01T06:43:53.276Z,12.45
2023-05-01T06:46:20.935Z,13.18
2023-05-01T06:48:48.927Z,13.65
2023-05-01T06:51:16.655Z,14.52
2023-05-01T06:53:44.346Z,13.70
2023-05-01T06:56:12.210Z,11.48
2023-05-01T06:58:39.879Z,12.35
2023-05-01T07:01:07.636Z,11.77
2023-05-01T07:03:35.414Z,17.02
2023-05-01T07:06:03.216Z,14.55
2023-05-01T07:08:31.614Z,13.50
2023-05-01T07:10:59.284Z,12.52
2023-05-01T07:13:27.163Z,13.80
2023-05-01T07:15:55.219Z,11.10
2023-05-01T07:18:23.059Z,14.93
2023-05-01T07:20:50.972Z,13.38
2023-05-01T07:23:18.727Z,13.77
2023-05-01T07:25:46.419Z,11.68
2023-05-01T07:28:14.064Z,13.60
2023-05-01T07:30:42.006Z,12.48
2023-05-01T07:33:09.639Z,9.25
2023-05-01T07:35:37.454Z,14.10
2023-05-01T07:38:05.195Z,12.52
2023-05-01T07:40:34.497Z,10.90
2023-05-01T07:43:02.271Z,14.13
2023-05-01T07:45:31.379Z,12.20
2023-05-01T07:47:58.984Z,13.63
2023-05-01T07:50:26.931Z,13.02
2023-05-01T07:52:54.862Z,12.88
2023-05-01T07:55:23.649Z,12.82
2023-05-01T07:57:51.338Z,12.95
2023-05-01T08:00:20.112Z,13.93
2023-05-01T08:02:48.384Z,13.13
2023-05-01T08:05:16.227Z,11.60
2023-05-01T08:07:44.018Z,12.25
2023-05-01T08:10:11.652Z,15.80
2023-05-01T08:12:39.536Z,11.65
2023-05-01T08:15:52.560Z,14.73
2023-05-01T08:18:21.199Z,12.50
2023-05-01T08:20:50.497Z,13.65
2023-05-01T08:23:18.699Z,12.80
2023-05-01T08:25:51.701Z,13.30
2023-05-01T08:28:22.910Z,11.30
2023-05-01T08:30:51.010Z,13.27
2023-05-01T08:33:19.405Z,13.55
2023-05-01T08:35:46.986Z,13.63
2023-05-01T08:38:14.776Z,14.80
2023-05-01T08:40:51.067Z,14.18
2023-05-01T08:43:19.206Z,17.05
2023-05-01T08:45:49.417Z,14.18
2023-05-01T08:48:20.661Z,14.50
2023-05-01T08:50:49.805Z,10.98
2023-05-01T08:53:20.201Z,12.45
2023-05-01T08:55:50.651Z,12.20
2023-05-01T08:58:21.918Z,10.95
2023-05-01T09:00:50.311Z,13.20
2023-05-01T09:03:20.380Z,14.10
2023-05-01T09:05:48.904Z,11.48
2023-05-01T09:08:16.716Z,12.68
2023-05-01T09:10:48.828Z,12.35
2023-05-01T09:13:16.546Z,12.13
2023-05-01T09:15:44.600Z,10.32
2023-05-01T09:18:13.056Z,13.38
2023-05-01T09:20:41.779Z,13.93
2023-05-01T09:23:10.113Z,13.55
2023-05-01T09:25:38.646Z,12.00
2023-05-01T09:28:07.574Z,11.57
2023-05-01T09:30:39.394Z,17.00
2023-05-01T09:33:15.535Z,13.05
2023-05-01T09:35:50.000Z,13.68
2023-05-01T09:38:23.900Z,12.18
2023-05-01T09:40:56.513Z,15.15
2023-05-01T09:43:29.547Z,11.32
2023-05-01T09:46:09.957Z,10.82
2023-05-01T09:48:38.894Z,11.85
2023-05-01T09:51:31.036Z,12.48
2023-05-01T09:54:01.846Z,12.93
2023-05-01T09:56:32.286Z,13.32
2023-05-01T09:59:18.124Z,10.23
2023-05-01T10:01:49.354Z,12.50
2023-05-01T10:04:17.369Z,13.85
2023-05-01T10:06:45.278Z,17.02
2023-05-01T10:09:29.257Z,12.77
2023-05-01T10:11:57.866Z,12.63
2023-05-01T10:14:27.062Z,10.75
2023-05-01T10:16:57.970Z,12.77
2023-05-01T10:19:26.082Z,10.10
2023-05-01T10:21:53.807Z,9.90
2023-05-01T10:24:22.270Z,9.18
2023-05-01T10:26:52.456Z,10.65
2023-05-01T10:29:23.909Z,13.60
2023-05-01T10:34:24.197Z,10.50
2023-05-01T10:37:07.185Z,13.05
2023-05-01T10:39:36.853Z,10.77
2023-05-01T10:42:11.213Z,13.25
2023-05-01T10:44:39.083Z,10.70
2023-05-01T10:47:31.644Z,11.57
2023-05-01T10:50:15.846Z,12.90
2023-05-01T10:53:15.589Z,10.30
2023-05-01T10:55:49.427Z,11.93
2023-05-01T10:58:37.154Z,9.07
2023-05-01T11:01:31.372Z,9.60
2023-05-01T11:04:24.798Z,9.35
2023-05-01T11:07:08.528Z,12.38
2023-05-01T11:09:44.356Z,11.23
2023-05-01T11:12:16.742Z,10.60
2023-05-01T11:15:09.620Z,12.80
2023-05-01T11:17:46.058Z,11.20
2023-05-01T11:20:25.998Z,13.52
2023-05-01T11:22:56.472Z,12.90
2023-05-01T11:25:27.757Z,11.87
2023-05-01T11:27:59.868Z,21.23
2023-05-01T11:30:37.797Z,12.75
2023-05-01T11:33:09.128Z,11.57
2023-05-01T11:35:39.079Z,11.20
2023-05-01T11:38:18.633Z,10.68
2023-05-01T11:40:55.479Z,15.60
2023-05-01T11:43:23.531Z,11.05
2023-05-01T11:45:55.011Z,12.57
2023-05-01T11:48:22.836Z,14.38
2023-05-01T11:50:50.874Z,10.85
2023-05-01T11:53:18.639Z,11.77
2023-05-01T11:55:46.674Z,9.98
2023-05-01T11:58:15.233Z,16.48
2023-05-01T12:00:43.969Z,12.00
2023-05-01T12:03:15.500Z,13.90
2023-05-01T12:05:45.492Z,11.63
2023-05-01T12:08:18.793Z,10.48
2023-05-01T12:10:53.621Z,11.27
2023-05-01T12:13:22.106Z,11.85
2023-05-01T12:15:55.248Z,9.85
2023-05-01T12:18:23.425Z,10.80
2023-05-01T12:20:54.300Z,13.23
2023-05-01T12:23:37.361Z,11.35
2023-05-01T12:26:28.226Z,12.38
2023-05-01T12:28:58.936Z,10.00
2023-05-01T12:31:28.586Z,12.38
2023-05-01T12:34:01.994Z,24.35
2023-05-01T12:36:32.467Z,14.25
2023-05-01T12:39:12.883Z,11.38
2023-05-01T12:41:49.049Z,11.65
2023-05-01T12:44:23.867Z,14.75
2023-05-01T12:47:04.458Z,14.18
2023-05-01T12:49:33.287Z,11.55
2023-05-01T12:52:01.793Z,10.80
2023-05-01T12:54:34.593Z,13.88
2023-05-01T12:57:08.071Z,10.20
2023-05-01T12:59:41.025Z,20.10
2023-05-01T13:02:16.065Z,21.15
2023-05-01T13:04:45.192Z,12.02
2023-05-01T13:07:15.799Z,18.20
2023-05-01T13:09:57.794Z,15.80
2023-05-01T13:12:27.634Z,14.98
2023-05-01T13:14:56.331Z,12.80
2023-05-01T13:17:31.249Z,34.70
2023-05-01T13:20:04.912Z,15.57
2023-05-01T13:22:39.005Z,41.50
2023-05-01T13:25:20.647Z,11.98
2023-05-01T13:27:53.707Z,12.45
2023-05-01T13:30:32.993Z,11.38
2023-05-01T13:33:02.125Z,7.97
2023-05-01T13:35:32.178Z,10.80
2023-05-01T13:38:04.121Z,9.43
2023-05-01T13:40:34.400Z,10.25
2023-05-01T13:45:30.751Z,8.65
2023-05-01T13:47:58.717Z,10.32
2023-05-01T13:50:27.576Z,9.15
2023-05-01T13:52:55.206Z,10.18
2023-05-01T13:55:24.183Z,11.25
2023-05-01T13:57:51.885Z,11.20
2023-05-01T14:00:20.679Z,10.98
2023-05-01T14:02:49.716Z,12.38
2023-05-01T14:05:28.928Z,10.75
2023-05-01T14:07:58.520Z,9.40
2023-05-01T14:10:28.886Z,12.02
2023-05-01T14:13:01.036Z,11.40
2023-05-01T14:15:29.454Z,9.65
2023-05-01T14:17:58.234Z,9.50
2023-05-01T14:20:26.001Z,11.68
2023-05-01T14:22:53.780Z,11.93
2023-05-01T14:25:31.355Z,10.55
2023-05-01T14:28:01.946Z,11.10
2023-05-01T14:30:37.182Z,8.93
2023-05-01T14:33:11.492Z,9.00
2023-05-01T14:35:52.060Z,8.43
2023-05-01T14:38:22.618Z,10.43
2023-05-01T14:40:50.393Z,9.75
2023-05-01T14:43:21.847Z,8.60
2023-05-01T14:45:50.189Z,9.30
2023-05-01T14:48:24.063Z,8.70
2023-05-01T14:50:52.906Z,7.35
2023-05-01T14:53:21.461Z,7.25
2023-05-01T14:55:51.768Z,13.35
2023-05-01T14:58:19.440Z,8.55
2023-05-01T15:00:47.233Z,9.07
2023-05-01T15:03:15.011Z,10.00
2023-05-01T15:05:44.408Z,10.27
2023-05-01T15:08:12.217Z,8.60
2023-05-01T15:10:39.876Z,10.48
2023-05-01T15:13:07.722Z,9.85
2023-05-01T15:15:35.297Z,11.02
2023-05-01T15:18:04.067Z,13.85
2023-05-01T15:20:31.942Z,13.20
2023-05-01T15:22:59.504Z,11.52
2023-05-01T15:25:27.161Z,11.27
2023-05-01T15:27:55.840Z,13.77
2023-05-01T15:30:23.474Z,10.65
2023-05-01T15:32:51.678Z,14.32
2023-05-01T15:35:21.416Z,15.00
2023-05-01T15:37:49.337Z,16.08
2023-05-01T15:40:16.976Z,15.07
2023-05-01T15:42:47.936Z,12.68
2023-05-01T15:45:15.565Z,11.82
2023-05-01T15:47:43.219Z,11.57
2023-05-01T15:50:14.668Z,12.00
2023-05-01T15:52:42.246Z,12.20
2023-05-01T15:55:10.052Z,10.60
2023-05-01T15:57:37.766Z,9.55
2023-05-01T16:00:06.587Z,8.48
2023-05-01T16:02:34.355Z,9.25
2023-05-01T16:05:02.098Z,12.38
2023-05-01T16:07:29.890Z,7.43
2023-05-01T16:09:58.424Z,8.25
2023-05-01T16:12:30.132Z,9.32
2023-05-01T16:14:57.960Z,8.73
2023-05-01T16:17:25.608Z,8.43
2023-05-01T16:19:55.124Z,9.57
2023-05-01T16:22:22.726Z,9.95
2023-05-01T16:24:50.490Z,8.38
2023-05-01T16:27:18.515Z,11.55
2023-05-01T16:29:46.223Z,13.32
2023-05-01T16:32:17.005Z,9.60
2023-05-01T16:34:44.856Z,10.30
2023-05-01T16:37:15.118Z,9.80
2023-05-01T16:39:43.205Z,9.80
2023-05-01T16:42:14.440Z,12.38
2023-05-01T16:44:42.206Z,13.05
2023-05-01T16:47:12.820Z,8.90
2023-05-01T16:49:46.455Z,8.30
2023-05-01T16:52:16.310Z,10.05
2023-05-01T16:54:43.905Z,10.38
2023-05-01T16:57:11.556Z,10.05
2023-05-01T16:59:39.239Z,10.57
2023-05-01T17:02:07.149Z,11.57
2023-05-01T17:04:34.942Z,11.27
2023-05-01T17:07:02.728Z,10.68
2023-05-01T17:09:31.116Z,13.20
2023-05-01T17:11:59.202Z,11.88
2023-05-01T17:14:29.067Z,10.73
2023-05-01T17:17:00.042Z,13.40
2023-05-01T17:19:28.890Z,10.15
2023-05-01T17:21:58.167Z,12.60
2023-05-01T17:24:27.061Z,9.88
2023-05-01T17:26:55.512Z,9.82
2023-05-01T17:29:24.149Z,10.43
2023-05-01T17:31:51.834Z,9.15
2023-05-01T17:34:19.649Z,10.75
2023-05-01T17:36:47.597Z,12.35
2023-05-01T17:39:15.182Z,8.98
2023-05-01T17:41:43.012Z,8.90
2023-05-01T17:44:10.653Z,8.52
2023-05-01T17:46:38.974Z,7.65
2023-05-01T17:49:07.389Z,9.07
2023-05-01T17:51:35.134Z,9.23
2023-05-01T17:54:02.723Z,9.05
2023-05-01T17:56:30.243Z,9.40
2023-05-01T17:58:57.813Z,10.23
2023-05-01T18:01:25.558Z,9.80
2023-05-01T18:03:54.115Z,9.35
2023-05-01T18:06:22.017Z,9.95
2023-05-01T18:08:50.235Z,9.02
2023-05-01T18:11:17.883Z,9.52
2023-05-01T18:13:48.002Z,9.85
2023-05-01T18:16:16.060Z,9.35
2023-05-01T18:18:43.989Z,10.93
2023-05-01T18:21:11.592Z,12.00
2023-05-01T18:23:39.804Z,10.05
2023-05-01T18:26:08.128Z,9.20
2023-05-01T18:28:35.738Z,11.73
2023-05-01T18:31:03.904Z,10.75
2023-05-01T18:33:31.704Z,10.07
2023-05-01T18:35:59.938Z,11.18
2023-05-01T18:38:28.500Z,11.52
2023-05-01T18:40:56.302Z,10.75
2023-05-01T18:43:23.927Z,13.57
2023-05-01T18:45:51.538Z,12.43
2023-05-01T18:48:19.509Z,13.52
2023-05-01T18:50:54.283Z,11.48
2023-05-01T18:56:03.325Z,14.40
2023-05-01T18:58:33.152Z,13.45
2023-05-01T19:01:00.870Z,14.50
2023-05-01T19:03:28.470Z,13.38
2023-05-01T19:05:56.112Z,17.55
2023-05-01T19:08:23.985Z,16.50
2023-05-01T19:10:52.791Z,15.50
2023-05-01T19:13:20.681Z,16.55
2023-05-01T19:15:48.328Z,14.18
2023-05-01T19:18:16.856Z,14.85
2023-05-01T19:20:46.936Z,15.27
2023-05-01T19:23:14.561Z,14.40
2023-05-01T19:25:42.130Z,14.10
2023-05-01T19:28:09.816Z,13.73
2023-05-01T19:30:37.501Z,17.17
2023-05-01T19:33:05.155Z,14.75
2023-05-01T19:35:32.944Z,16.23
2023-05-01T19:38:00.602Z,19.70
2023-05-01T19:40:28.775Z,16.38
2023-05-01T19:42:56.554Z,15.38
2023-05-01T19:45:30.868Z,15.90
2023-05-01T19:47:58.604Z,17.35
2023-05-01T19:50:26.329Z,17.33
2023-05-01T19:52:54.071Z,18.05
2023-05-01T19:55:21.598Z,17.52
2023-05-01T19:57:49.126Z,18.65
2023-05-01T20:00:17.026Z,17.70
2023-05-01T20:02:45.266Z,20.05
2023-05-01T20:05:15.650Z,19.77
2023-05-01T20:07:43.376Z,21.48
2023-05-01T20:10:11.254Z,22.58
2023-05-01T20:12:39.058Z,22.90
2023-05-01T20:15:08.680Z,22.42
2023-05-01T20:17:36.357Z,22.77
2023-05-01T20:20:04.330Z,24.58
2023-05-01T20:22:32.031Z,25.90
2023-05-01T20:24:59.592Z,23.52
2023-05-01T20:27:27.463Z,22.65
2023-05-01T20:29:55.113Z,23.02
2023-05-01T20:32:22.766Z,22.90
2023-05-01T20:34:50.400Z,25.02
2023-05-01T20:37:19.250Z,26.83
2023-05-01T20:39:47.060Z,24.98
2023-05-01T20:42:14.764Z,28.73
2023-05-01T20:44:42.278Z,29.40
2023-05-01T20:47:09.929Z,30.55
2023-05-01T20:49:37.440Z,27.85
2023-05-01T20:52:05.378Z,29.05
2023-05-01T20:54:33.068Z,31.15
2023-05-01T20:57:02.612Z,29.00
2023-05-01T20:59:30.724Z,29.45
2023-05-01T21:01:58.393Z,30.13
2023-05-01T21:04:26.079Z,31.02
2023-05-01T21:06:53.808Z,31.27
2023-05-01T21:09:21.466Z,31.13
2023-05-01T21:11:49.184Z,29.25
2023-05-01T21:14:16.667Z,32.33
2023-05-01T21:16:44.191Z,35.35
2023-05-01T21:19:14.635Z,33.10
2023-05-01T21:21:42.299Z,31.58
2023-05-01T21:24:20.820Z,32.65
2023-05-01T21:26:48.990Z,33.05
2023-05-01T21:29:16.599Z,33.53
2023-05-01T21:31:44.229Z,32.45
2023-05-01T21:34:12.519Z,34.22
2023-05-01T21:36:46.951Z,35.72
2023-05-01T21:39:15.576Z,36.05
2023-05-01T21:41:43.148Z,36.83
2023-05-01T21:44:10.922Z,35.97
2023-05-01T21:46:38.722Z,35.90
2023-05-01T21:49:06.552Z,35.95
2023-05-01T21:51:34.137Z,39.30
2023-05-01T21:54:04.208Z,40.42
2023-05-01T21:56:32.720Z,43.63
2023-05-01T21:59:04.811Z,44.85
2023-05-01T22:01:32.618Z,43.22
2023-05-01T22:04:00.266Z,46.72
2023-05-01T22:06:28.253Z,45.50
2023-05-01T22:08:56.267Z,44.70
2023-05-01T22:11:24.401Z,49.90
2023-05-01T22:13:51.947Z,47.53
2023-05-01T22:16:19.846Z,43.70
2023-05-01T22:18:49.780Z,43.78
2023-05-01T22:21:17.496Z,42.50
2023-05-01T22:23:45.496Z,43.35
2023-05-01T22:26:13.261Z,45.08
2023-05-01T22:28:40.931Z,41.92
2023-05-01T22:31:08.418Z,43.55
2023-05-01T22:33:36.779Z,44.47
2023-05-01T22:36:07.330Z,44.65
2023-05-01T22:38:36.188Z,41.60
2023-05-01T22:41:03.951Z,42.75
2023-05-01T22:43:31.459Z,44.35
2023-05-01T22:45:59.649Z,42.33
2023-05-01T22:48:27.347Z,44.92
2023-05-01T22:50:54.846Z,42.85
2023-05-01T22:53:22.389Z,43.13
2023-05-01T22:55:50.026Z,44.70
2023-05-01T22:58:17.563Z,41.60
2023-05-01T23:00:45.098Z,40.17
2023-05-01T23:03:12.791Z,41.95
2023-05-01T23:05:40.445Z,37.78
2023-05-01T23:08:07.965Z,41.67
2023-05-01T23:10:42.245Z,39.17
2023-05-01T23:13:19.845Z,42.72
2023-05-01T23:15:49.587Z,42.03
2023-05-01T23:18:27.623Z,39.00
2023-05-01T23:20:55.573Z,41.35
2023-05-01T23:23:29.696Z,38.55
2023-05-01T23:25:57.703Z,39.67
2023-05-01T23:28:27.015Z,38.40
2023-05-01T23:30:59.043Z,37.58
2023-05-01T23:33:39.035Z,38.40
2023-05-01T23:36:12.449Z,38.80
2023-05-01T23:38:40.524Z,40.72
2023-05-01T23:41:08.456Z,39.55
2023-05-01T23:43:37.949Z,39.10
2023-05-01T23:46:07.521Z,40.72
2023-05-01T23:48:35.412Z,38.90
2023-05-01T23:51:03.909Z,36.78
2023-05-01T23:53:31.590Z,39.13
2023-05-01T23:55:59.262Z,40.95
2023-05-01T23:58:26.795Z,38.72
